Terminal Aerodrome Forecast
Issued by NWS Charleston, WV

Current Version | Previous Version | Text Only | Print | Product List | Glossary Off
Versions: 1 2 3 4 5 6 7 8 9 10 11 12 13 14 15 16 17 18 19 20 21 22

000
FTUS41 KRLX 211152
TAFPKB
TAF
KPKB 211152Z 2112/2212 VRB03KT P6SM OVC045
     FM211500 00000KT P6SM OVC030
     FM212000 31006KT P6SM BKN025
     FM220400 VRB03KT P6SM SCT025
     FM220900 00000KT P6SM FEW150=

USA.gov is the U.S. government's official web portal to all federal, state and local government web resources and services.